Time;durP1;ratioP1;P1;durP2;ratioP2;P2;SDS_P1;SDS_P2;PMS_P1;PMS_P2;Temp;Humidity;BMP_temperature;BMP_pressure;BME280_temperature;BME280_humidity;BME280_pressure;Samples;Min_cycle;Max_cycle;Signal;HPM_P1;HPM_P2
2023/12/07 00:00:24;;;;;;;26.23;17.40;;;;;;;2.05;100.00;100992.09;5103350;28;20203;-86
2023/12/07 00:02:50;;;;;;;21.83;15.90;;;;;;;2.04;100.00;100991.25;5100446;28;20235;-85
2023/12/07 00:05:16;;;;;;;25.53;16.93;;;;;;;2.05;100.00;100998.22;5104529;28;20227;-85
2023/12/07 00:07:44;;;;;;;24.47;16.20;;;;;;;2.05;100.00;100990.34;5094174;28;20218;-86
2023/12/07 00:10:11;;;;;;;24.43;17.07;;;;;;;2.04;100.00;100996.50;5097068;28;20200;-87
2023/12/07 00:12:40;;;;;;;26.47;17.17;;;;;;;2.06;100.00;100999.94;5100799;28;20207;-86
2023/12/07 00:15:08;;;;;;;26.67;17.90;;;;;;;2.06;100.00;100999.94;5098164;28;20224;-85
2023/12/07 00:17:34;;;;;;;34.90;20.40;;;;;;;2.05;100.00;101006.09;5099728;28;20200;-86
2023/12/07 00:20:01;;;;;;;32.33;19.37;;;;;;;2.03;100.00;101007.91;5101645;28;20208;-85
2023/12/07 00:22:28;;;;;;;28.10;17.27;;;;;;;2.04;100.00;101012.25;5103714;28;20200;-83
2023/12/07 00:24:56;;;;;;;24.00;15.70;;;;;;;2.05;100.00;101018.38;5108237;28;20292;-85
2023/12/07 00:27:22;;;;;;;24.47;16.60;;;;;;;2.07;100.00;101014.81;5101404;28;20191;-84
2023/12/07 00:29:49;;;;;;;23.50;15.77;;;;;;;2.05;100.00;101018.38;5096637;28;20199;-85
2023/12/07 00:32:20;;;;;;;22.60;16.17;;;;;;;2.07;100.00;101016.59;5101896;28;20200;-85
2023/12/07 00:34:46;;;;;;;24.47;15.57;;;;;;;2.06;100.00;101031.47;5099132;28;20231;-86
2023/12/07 00:37:14;;;;;;;21.93;14.90;;;;;;;2.06;100.00;101031.47;5104335;28;20200;-86
2023/12/07 00:39:43;;;;;;;21.77;15.53;;;;;;;2.07;100.00;101034.97;5105658;28;20269;-85
2023/12/07 00:42:11;;;;;;;23.33;15.07;;;;;;;2.06;100.00;101036.72;5109538;28;20235;-86
2023/12/07 00:44:44;;;;;;;22.73;14.30;;;;;;;2.05;100.00;101029.75;5101881;28;20650;-87
2023/12/07 00:47:10;;;;;;;23.17;15.30;;;;;;;2.05;100.00;101035.00;5101449;28;20208;-85
2023/12/07 00:49:41;;;;;;;23.60;15.67;;;;;;;2.03;100.00;101034.16;5102841;28;20203;-87
2023/12/07 00:52:07;;;;;;;23.60;14.90;;;;;;;2.03;100.00;101036.78;5102762;28;20246;-87
2023/12/07 00:54:34;;;;;;;22.47;15.27;;;;;;;2.03;100.00;101042.06;5101628;28;20595;-86
2023/12/07 00:57:00;;;;;;;23.60;14.90;;;;;;;2.03;100.00;101044.69;5101843;28;20196;-86
2023/12/07 00:59:33;;;;;;;27.83;16.90;;;;;;;2.04;100.00;101043.78;5100954;28;20208;-87
2023/12/07 01:02:00;;;;;;;24.10;14.30;;;;;;;2.05;100.00;101048.13;5101635;28;20196;-86
2023/12/07 01:04:31;;;;;;;23.00;15.83;;;;;;;2.04;100.00;101043.78;5108700;28;20716;-86
2023/12/07 01:06:58;;;;;;;22.87;15.67;;;;;;;2.07;100.00;101053.38;5101778;28;20238;-86
2023/12/07 01:09:27;;;;;;;21.57;15.57;;;;;;;2.08;100.00;101055.09;5102010;28;20208;-85
2023/12/07 01:11:55;;;;;;;21.60;15.10;;;;;;;2.07;100.00;101056.00;5104019;28;20563;-86
2023/12/07 01:14:22;;;;;;;21.73;14.23;;;;;;;2.06;100.00;101060.38;5102045;28;20227;-87
2023/12/07 01:16:55;;;;;;;23.60;15.73;;;;;;;2.06;100.00;101068.25;5102494;28;20203;-85
2023/12/07 01:19:22;;;;;;;22.50;16.33;;;;;;;2.09;100.00;101069.97;5102666;28;20210;-87
2023/12/07 01:21:50;;;;;;;24.40;16.13;;;;;;;2.06;100.00;101075.28;5102374;28;20204;-87
2023/12/07 01:24:17;;;;;;;21.30;15.37;;;;;;;2.07;100.00;101077.00;5097378;28;20227;-87
2023/12/07 01:29:24;;;;;;;23.77;15.30;;;;;;;2.08;100.00;101079.59;5099502;28;20200;-85
2023/12/07 01:31:51;;;;;;;23.70;15.50;;;;;;;2.10;100.00;101079.56;5102495;28;20206;-87
2023/12/07 01:34:18;;;;;;;23.63;15.40;;;;;;;2.11;100.00;101085.69;5106621;28;20593;-86
2023/12/07 01:36:45;;;;;;;23.13;16.00;;;;;;;2.11;100.00;101088.31;5101718;28;20207;-85
2023/12/07 01:39:12;;;;;;;22.27;16.27;;;;;;;2.13;100.00;101095.28;5095381;28;20212;-86
2023/12/07 01:41:39;;;;;;;25.63;16.90;;;;;;;2.13;100.00;101086.53;5103357;28;20598;-86
2023/12/07 01:44:05;;;;;;;22.73;15.53;;;;;;;2.12;100.00;101087.44;5094212;28;21258;-86
2023/12/07 01:46:33;;;;;;;24.37;15.93;;;;;;;2.12;100.00;101093.53;5106290;28;20223;-86
2023/12/07 01:49:03;;;;;;;23.93;16.90;;;;;;;2.12;100.00;101083.03;5102222;28;20203;-85
2023/12/07 01:51:32;;;;;;;27.37;16.17;;;;;;;2.12;100.00;101090.06;5094426;28;20199;-86
2023/12/07 01:53:59;;;;;;;23.30;15.33;;;;;;;2.11;100.00;101091.81;5104851;28;20251;-86
2023/12/07 01:56:26;;;;;;;23.37;15.37;;;;;;;2.14;100.00;101093.50;5095561;28;20207;-87
2023/12/07 01:58:53;;;;;;;23.27;16.10;;;;;;;2.15;100.00;101097.88;5102348;28;20208;-86
2023/12/07 02:01:22;;;;;;;22.33;15.07;;;;;;;2.14;100.00;101102.25;5103939;28;20207;-87
2023/12/07 02:03:48;;;;;;;22.03;15.30;;;;;;;2.15;100.00;101096.09;5095768;28;20805;-86
2023/12/07 02:06:16;;;;;;;20.50;15.37;;;;;;;2.16;100.00;101102.19;5102306;28;20238;-86
2023/12/07 02:08:44;;;;;;;21.60;16.10;;;;;;;2.17;100.00;101096.06;5097224;28;20234;-86
2023/12/07 02:11:13;;;;;;;23.60;15.40;;;;;;;2.15;100.00;101103.13;5098854;28;20200;-86
2023/12/07 02:13:43;;;;;;;23.20;15.10;;;;;;;2.15;100.00;101100.50;5101407;28;20216;-85
2023/12/07 02:16:16;;;;;;;23.03;16.67;;;;;;;2.14;100.00;101106.66;5097175;28;20741;-86
2023/12/07 02:18:51;;;;;;;22.17;15.37;;;;;;;2.14;100.00;101101.41;5099945;28;20214;-86
2023/12/07 02:21:26;;;;;;;22.80;16.17;;;;;;;2.13;100.00;101100.53;5096962;28;20206;-86
2023/12/07 02:23:55;;;;;;;21.73;16.10;;;;;;;2.15;100.00;101103.13;5102170;28;20231;-86
2023/12/07 02:26:57;;;;;;;26.93;17.27;;;;;;;2.15;100.00;101109.22;5101158;28;20199;-86
2023/12/07 02:29:23;;;;;;;24.67;16.80;;;;;;;2.15;100.00;101105.75;5098544;28;20209;-86
2023/12/07 02:31:49;;;;;;;24.30;16.57;;;;;;;2.17;100.00;101104.78;5105119;28;20200;-86
2023/12/07 02:34:19;;;;;;;24.87;16.77;;;;;;;2.17;100.00;101111.81;5102094;28;20227;-86
2023/12/07 02:36:50;;;;;;;28.73;17.87;;;;;;;2.16;100.00;101110.94;5100425;28;20615;-87
2023/12/07 02:39:18;;;;;;;30.07;18.47;;;;;;;2.18;100.00;101114.41;5103138;28;20228;-87
2023/12/07 02:41:48;;;;;;;24.43;16.37;;;;;;;2.18;100.00;101111.78;5095142;28;20206;-88
2023/12/07 02:44:16;;;;;;;27.67;17.67;;;;;;;2.19;100.00;101115.28;5100550;28;20261;-87
2023/12/07 02:46:43;;;;;;;27.43;17.30;;;;;;;2.19;100.00;101117.91;5107350;28;20208;-87
2023/12/07 02:49:09;;;;;;;25.97;17.57;;;;;;;2.18;100.00;101111.78;5099418;28;20242;-86
2023/12/07 02:51:36;;;;;;;27.60;17.33;;;;;;;2.18;100.00;101111.78;5106299;28;20211;-86
2023/12/07 02:54:02;;;;;;;26.83;17.63;;;;;;;2.18;100.00;101110.91;5096009;28;20231;-87
2023/12/07 02:56:28;;;;;;;27.83;17.43;;;;;;;2.17;100.00;101109.19;5102368;28;20579;-86
2023/12/07 02:59:03;;;;;;;28.63;18.17;;;;;;;2.17;100.00;101106.56;5096861;28;20229;-86
2023/12/07 03:01:31;;;;;;;27.07;17.43;;;;;;;2.21;100.00;101113.47;5100779;28;20222;-87
2023/12/07 03:03:58;;;;;;;26.30;17.20;;;;;;;2.19;100.00;101110.03;5100215;28;20227;-86
2023/12/07 03:06:32;;;;;;;24.60;16.93;;;;;;;2.21;100.00;101108.22;5093897;28;20755;-86
2023/12/07 03:08:59;;;;;;;24.53;16.43;;;;;;;2.20;100.00;101110.00;5101921;28;20272;-87
2023/12/07 03:11:25;;;;;;;25.63;16.73;;;;;;;2.20;100.00;101111.75;5101326;28;20206;-86
2023/12/07 03:13:53;;;;;;;26.93;16.70;;;;;;;2.21;100.00;101124.88;5092209;28;20766;-87
2023/12/07 03:19:06;;;;;;;26.63;16.13;;;;;;;2.20;100.00;101119.63;5101659;28;20217;-86
2023/12/07 03:21:33;;;;;;;24.67;15.67;;;;;;;2.21;100.00;101126.63;5094550;28;20211;-85
2023/12/07 03:23:59;;;;;;;23.20;16.07;;;;;;;2.21;100.00;101122.25;5099935;28;20232;-86
2023/12/07 03:26:26;;;;;;;28.60;17.17;;;;;;;2.22;100.00;101120.47;5104994;28;20634;-86
2023/12/07 03:28:55;;;;;;;23.13;16.17;;;;;;;2.20;100.00;101124.91;5097747;28;20204;-88
2023/12/07 03:31:25;;;;;;;22.53;15.73;;;;;;;2.21;100.00;101119.59;5098067;28;20233;-87
2023/12/07 03:33:51;;;;;;;22.23;15.47;;;;;;;2.20;100.00;101120.50;5098988;28;20234;-86
2023/12/07 03:36:28;;;;;;;24.20;15.60;;;;;;;2.20;100.00;101123.13;5100470;28;20282;-87
2023/12/07 03:38:56;;;;;;;23.33;15.67;;;;;;;2.20;100.00;101131.00;5099632;28;20195;-86
2023/12/07 03:41:23;;;;;;;24.17;15.53;;;;;;;2.20;100.00;101127.53;5100297;28;20208;-87
2023/12/07 03:43:52;;;;;;;24.83;16.60;;;;;;;2.19;100.00;101124.03;5102096;28;20219;-87
2023/12/07 03:46:20;;;;;;;24.97;16.50;;;;;;;2.19;100.00;101131.91;5100353;28;20203;-86
2023/12/07 03:48:50;;;;;;;25.20;16.00;;;;;;;2.21;100.00;101127.50;5096523;28;20212;-87
2023/12/07 03:51:17;;;;;;;22.33;14.93;;;;;;;2.20;100.00;101131.00;5100778;28;20852;-87
2023/12/07 03:53:47;;;;;;;23.60;15.97;;;;;;;2.22;100.00;101134.47;5103486;28;20223;-86
2023/12/07 03:56:23;;;;;;;26.90;16.77;;;;;;;2.19;100.00;101137.16;5103252;28;20192;-85
2023/12/07 03:58:53;;;;;;;23.90;16.47;;;;;;;2.22;100.00;101142.38;5109172;28;20652;-87
2023/12/07 04:01:23;;;;;;;25.77;16.60;;;;;;;2.21;100.00;101145.88;5104702;28;20543;-86
2023/12/07 04:03:49;;;;;;;27.60;17.10;;;;;;;2.22;100.00;101144.13;5103655;28;20223;-87
2023/12/07 04:06:16;;;;;;;25.13;16.07;;;;;;;2.19;100.00;101146.81;5108221;28;20211;-86
2023/12/07 04:08:42;;;;;;;26.50;16.67;;;;;;;2.19;100.00;101154.69;5107580;28;20218;-87
2023/12/07 04:11:15;;;;;;;24.77;16.77;;;;;;;2.20;100.00;101151.16;5105627;28;20214;-86
2023/12/07 04:13:42;;;;;;;25.57;16.87;;;;;;;2.21;100.00;101152.91;5098708;28;20219;-86
2023/12/07 04:16:09;;;;;;;27.33;16.93;;;;;;;2.21;100.00;101147.66;5103408;28;20207;-86
2023/12/07 04:18:36;;;;;;;28.80;17.50;;;;;;;2.23;100.00;101154.59;5104993;28;20238;-86
2023/12/07 04:21:03;;;;;;;26.13;17.00;;;;;;;2.22;100.00;101154.63;5106132;28;20642;-87
2023/12/07 04:23:29;;;;;;;30.13;18.07;;;;;;;2.22;100.00;101163.38;5105646;28;20203;-86
2023/12/07 04:25:58;;;;;;;26.00;16.87;;;;;;;2.22;100.00;101154.63;5103526;28;20224;-87
2023/12/07 04:28:25;;;;;;;28.53;17.77;;;;;;;2.22;100.00;101159.88;5106738;28;20582;-86
2023/12/07 04:30:54;;;;;;;28.37;16.27;;;;;;;2.22;100.00;101168.66;5102675;28;20282;-87
2023/12/07 04:33:20;;;;;;;29.23;16.83;;;;;;;2.23;100.00;101169.50;5102143;28;20206;-86
2023/12/07 04:35:47;;;;;;;26.33;17.10;;;;;;;2.24;100.00;101168.63;5099276;28;20229;-86
2023/12/07 04:38:14;;;;;;;26.43;16.90;;;;;;;2.24;100.00;101168.63;5105283;28;20204;-87
2023/12/07 04:40:47;;;;;;;28.43;17.13;;;;;;;2.23;100.00;101169.50;5102931;28;21005;-86
2023/12/07 04:43:13;;;;;;;28.13;17.90;;;;;;;2.24;100.00;101166.84;5106955;28;20200;-88
2023/12/07 04:45:42;;;;;;;32.73;18.57;;;;;;;2.23;100.00;101165.13;5103652;28;20227;-86
2023/12/07 04:48:12;;;;;;;31.50;17.23;;;;;;;2.22;100.00;101167.78;5105122;28;20203;-86
2023/12/07 04:50:38;;;;;;;28.13;16.33;;;;;;;2.26;100.00;101166.81;5103766;28;20199;-86
2023/12/07 04:53:05;;;;;;;28.67;17.33;;;;;;;2.24;100.00;101169.47;5103206;28;20204;-86
2023/12/07 04:55:31;;;;;;;28.97;17.60;;;;;;;2.25;100.00;101167.72;5102021;28;20239;-86
2023/12/07 04:57:58;;;;;;;26.40;16.47;;;;;;;2.25;100.00;101163.31;5105690;28;20211;-86
2023/12/07 05:00:24;;;;;;;28.30;17.73;;;;;;;2.26;100.00;101158.94;5105170;28;20204;-87
2023/12/07 05:02:52;;;;;;;28.40;17.13;;;;;;;2.26;100.00;101170.31;5104904;28;20667;-86
2023/12/07 05:05:19;;;;;;;27.43;16.47;;;;;;;2.29;100.00;101167.63;5102252;28;20231;-86
2023/12/07 05:07:47;;;;;;;29.13;17.87;;;;;;;2.28;100.00;101165.03;5103073;28;20207;-86
2023/12/07 05:10:14;;;;;;;28.40;17.50;;;;;;;2.31;100.00;101167.59;5107329;28;20207;-86
2023/12/07 05:12:40;;;;;;;26.00;16.63;;;;;;;2.30;100.00;101165.88;5104550;28;20215;-86
2023/12/07 05:15:09;;;;;;;32.80;17.43;;;;;;;2.28;100.00;101171.16;5100026;28;20553;-87
2023/12/07 05:17:35;;;;;;;28.33;17.73;;;;;;;2.28;100.00;101172.91;5099488;28;20200;-87
2023/12/07 05:20:05;;;;;;;29.53;16.33;;;;;;;2.27;100.00;101171.19;5104195;28;20215;-88
2023/12/07 05:22:32;;;;;;;26.27;17.07;;;;;;;2.26;100.00;101174.72;5100684;28;20203;-87
2023/12/07 05:25:00;;;;;;;29.87;17.77;;;;;;;2.26;100.00;101174.72;5100896;28;20235;-86
2023/12/07 05:27:27;;;;;;;29.47;17.70;;;;;;;2.25;100.00;101180.84;5102197;28;20201;-86
2023/12/07 05:29:53;;;;;;;26.47;16.77;;;;;;;2.26;100.00;101175.56;5099365;28;20200;-86
2023/12/07 05:32:20;;;;;;;25.87;16.07;;;;;;;2.26;100.00;101172.06;5090985;28;20214;-88
2023/12/07 05:34:46;;;;;;;28.70;17.23;;;;;;;2.26;100.00;101170.31;5100134;28;20726;-87
2023/12/07 05:37:21;;;;;;;29.17;16.13;;;;;;;2.25;100.00;101165.09;5102219;28;20207;-87
2023/12/07 05:39:48;;;;;;;24.67;15.70;;;;;;;2.25;100.00;101171.22;5103910;28;20218;-85
2023/12/07 05:42:14;;;;;;;25.60;16.20;;;;;;;2.25;100.00;101170.34;5104156;28;20211;-86
2023/12/07 05:44:41;;;;;;;26.73;16.63;;;;;;;2.24;100.00;101171.25;5099433;28;20231;-86
2023/12/07 05:47:09;;;;;;;23.97;16.00;;;;;;;2.22;100.00;101171.28;5103050;28;20202;-86
2023/12/07 05:49:35;;;;;;;22.93;15.43;;;;;;;2.23;100.00;101175.63;5102857;28;20207;-87
2023/12/07 05:52:11;;;;;;;24.73;15.07;;;;;;;2.22;100.00;101173.03;5096937;28;20683;-87
2023/12/07 05:54:42;;;;;;;23.27;15.40;;;;;;;2.21;100.00;101180.06;5104574;28;20710;-87
2023/12/07 05:57:08;;;;;;;22.07;15.53;;;;;;;2.23;100.00;101170.38;5102135;28;20664;-86
2023/12/07 05:59:37;;;;;;;24.13;14.23;;;;;;;2.26;100.00;101172.94;5100913;28;20222;-86
2023/12/07 06:02:04;;;;;;;21.27;14.70;;;;;;;2.26;100.00;101170.31;5104178;28;20236;-86
2023/12/07 06:04:31;;;;;;;24.03;14.60;;;;;;;2.24;100.00;101180.00;5102535;28;20215;-87
2023/12/07 06:06:57;;;;;;;23.37;15.23;;;;;;;2.23;100.00;101180.88;5098649;28;20282;-87
2023/12/07 06:09:26;;;;;;;23.33;14.93;;;;;;;2.25;100.00;101179.09;5102445;28;20204;-88
2023/12/07 06:12:16;;;;;;;21.27;14.33;;;;;;;2.25;100.00;101183.47;5095812;28;20208;-84
2023/12/07 06:14:45;;;;;;;23.47;14.33;;;;;;;2.25;100.00;101188.75;5098503;28;20614;-86
2023/12/07 06:17:11;;;;;;;22.03;14.27;;;;;;;2.25;100.00;101186.97;5097464;28;20195;-86
2023/12/07 06:19:38;;;;;;;20.80;14.30;;;;;;;2.26;100.00;101195.72;5099138;28;20553;-87
2023/12/07 06:22:05;;;;;;;24.03;14.57;;;;;;;2.24;100.00;101193.13;5104688;28;20566;-86
2023/12/07 06:24:32;;;;;;;23.53;15.20;;;;;;;2.25;100.00;101191.38;5095254;28;20306;-86
2023/12/07 06:27:09;;;;;;;25.67;15.17;;;;;;;2.26;100.00;101191.34;5105087;28;20205;-86
2023/12/07 06:29:36;;;;;;;21.90;14.30;;;;;;;2.26;100.00;101193.97;5102869;28;20290;-88
2023/12/07 06:32:05;;;;;;;21.43;14.50;;;;;;;2.24;100.00;101192.25;5099094;28;20216;-87
2023/12/07 06:34:32;;;;;;;24.40;14.77;;;;;;;2.23;100.00;101196.66;5105777;28;20226;-88
2023/12/07 06:36:58;;;;;;;22.70;15.53;;;;;;;2.24;100.00;101192.25;5097502;28;20202;-87
2023/12/07 06:39:28;;;;;;;19.97;14.30;;;;;;;2.25;100.00;101199.25;5100638;28;20207;-89
2023/12/07 06:41:55;;;;;;;21.00;14.37;;;;;;;2.26;100.00;101211.50;5100080;28;20706;-88
2023/12/07 06:44:22;;;;;;;23.40;14.87;;;;;;;2.26;100.00;101208.88;5105521;28;20595;-87
2023/12/07 06:46:51;;;;;;;22.47;15.43;;;;;;;2.27;100.00;101213.22;5096462;28;20232;-86
2023/12/07 06:49:19;;;;;;;21.67;14.70;;;;;;;2.26;100.00;101208.88;5102791;28;20687;-87
2023/12/07 06:51:45;;;;;;;20.17;13.93;;;;;;;2.25;100.00;101213.25;5096183;28;20583;-87
2023/12/07 06:54:15;;;;;;;24.13;15.10;;;;;;;2.27;100.00;101221.97;5099835;28;20221;-87
2023/12/07 06:56:46;;;;;;;24.87;15.13;;;;;;;2.27;100.00;101214.09;5106049;28;20203;-87
2023/12/07 06:59:12;;;;;;;21.60;14.97;;;;;;;2.29;100.00;101222.81;5101523;28;20200;-87
2023/12/07 07:01:44;;;;;;;26.30;15.67;;;;;;;2.26;100.00;101222.00;5103200;28;20245;-87
2023/12/07 07:04:16;;;;;;;23.27;14.77;;;;;;;2.25;100.00;101220.28;5094577;28;20234;-87
2023/12/07 07:06:42;;;;;;;25.40;15.80;;;;;;;2.26;100.00;101227.28;5100904;28;20223;-87
2023/12/07 07:09:12;;;;;;;30.60;15.83;;;;;;;2.26;100.00;101227.28;5104586;28;20619;-87
2023/12/07 07:11:40;;;;;;;24.30;15.07;;;;;;;2.27;100.00;101229.88;5108008;28;20258;-87
2023/12/07 07:14:07;;;;;;;22.53;15.63;;;;;;;2.28;100.00;101233.38;5099864;28;20226;-87
2023/12/07 07:16:37;;;;;;;23.97;15.47;;;;;;;2.27;100.00;101219.34;5102415;28;20416;-86
2023/12/07 07:19:05;;;;;;;23.73;15.47;;;;;;;2.27;100.00;101235.13;5104971;28;20196;-87
2023/12/07 07:21:32;;;;;;;26.90;15.73;;;;;;;2.28;100.00;101230.72;5096541;28;20235;-86
2023/12/07 07:23:59;;;;;;;28.33;16.03;;;;;;;2.27;100.00;101224.63;5101587;28;20378;-87
2023/12/07 07:26:25;;;;;;;24.40;15.83;;;;;;;2.26;100.00;101227.28;5102231;28;20230;-88
2023/12/07 07:28:54;;;;;;;25.60;15.20;;;;;;;2.26;100.00;101227.28;5099779;28;20207;-87
2023/12/07 07:31:20;;;;;;;23.87;15.30;;;;;;;2.30;100.00;101221.94;5104596;28;20204;-86
2023/12/07 07:33:47;;;;;;;25.63;17.10;;;;;;;2.32;100.00;101229.78;5101255;28;20949;-87
2023/12/07 07:36:15;;;;;;;27.13;17.27;;;;;;;2.30;100.00;101236.81;5101416;28;20206;-87
2023/12/07 07:38:45;;;;;;;27.00;16.50;;;;;;;2.29;100.00;101241.22;5098776;28;21587;-87
2023/12/07 07:41:11;;;;;;;27.90;17.37;;;;;;;2.29;100.00;101246.47;5099298;28;20582;-87
2023/12/07 07:43:40;;;;;;;24.37;15.53;;;;;;;2.31;100.00;101243.81;5098957;28;21474;-87
2023/12/07 07:46:08;;;;;;;28.40;16.50;;;;;;;2.31;100.00;101246.44;5105599;28;20220;-87
2023/12/07 07:48:35;;;;;;;25.57;16.27;;;;;;;2.30;100.00;101252.59;5096808;28;20207;-87
2023/12/07 07:51:02;;;;;;;24.90;16.23;;;;;;;2.29;100.00;101254.38;5101052;28;20226;-87
2023/12/07 07:53:32;;;;;;;25.97;16.23;;;;;;;2.32;100.00;101256.06;5098078;28;20223;-86
2023/12/07 07:55:58;;;;;;;25.90;17.00;;;;;;;2.32;100.00;101248.19;5096681;28;20256;-87
2023/12/07 07:58:25;;;;;;;24.47;16.17;;;;;;;2.30;100.00;101258.72;5106946;28;20207;-87
2023/12/07 08:00:53;;;;;;;26.37;17.03;;;;;;;2.30;100.00;101258.72;5101580;28;20839;-86
2023/12/07 08:03:21;;;;;;;24.90;16.13;;;;;;;2.30;100.00;101261.34;5098215;28;20287;-87
2023/12/07 08:05:48;;;;;;;28.17;16.97;;;;;;;2.32;100.00;101258.69;5100110;28;20243;-86
2023/12/07 08:08:26;;;;;;;25.87;15.67;;;;;;;2.32;100.00;101262.19;5104141;28;20366;-88
2023/12/07 08:10:54;;;;;;;24.57;15.73;;;;;;;2.31;100.00;101264.84;5100957;28;20729;-87
2023/12/07 08:13:24;;;;;;;24.40;16.03;;;;;;;2.31;100.00;101257.81;5101721;28;20196;-87
2023/12/07 08:16:01;;;;;;;27.67;16.00;;;;;;;2.34;100.00;101263.00;5103060;28;20226;-86
2023/12/07 08:18:39;;;;;;;24.60;15.40;;;;;;;2.34;100.00;101275.28;5098781;28;20195;-88
2023/12/07 08:21:08;;;;;;;24.00;15.30;;;;;;;2.34;100.00;101270.88;5104340;28;20219;-87
2023/12/07 08:23:34;;;;;;;23.73;14.57;;;;;;;2.37;100.00;101272.59;5103362;28;20211;-88
2023/12/07 08:26:02;;;;;;;29.73;15.83;;;;;;;2.36;100.00;101270.84;5106539;28;20577;-88
2023/12/07 08:28:29;;;;;;;25.10;15.80;;;;;;;2.38;100.00;101266.44;5103408;28;20206;-87
2023/12/07 08:30:55;;;;;;;27.07;16.33;;;;;;;2.41;100.00;101269.00;5093445;28;20200;-86
2023/12/07 08:33:22;;;;;;;25.83;15.77;;;;;;;2.42;100.00;101268.13;5096798;28;20200;-88
2023/12/07 08:35:54;;;;;;;23.00;15.37;;;;;;;2.43;100.00;101264.59;5106947;28;20226;-86
2023/12/07 08:38:21;;;;;;;29.97;16.03;;;;;;;2.43;100.00;101264.59;5101246;28;20234;-87
2023/12/07 08:40:50;;;;;;;24.40;15.73;;;;;;;2.45;100.00;101270.69;5106150;28;20216;-87
2023/12/07 08:43:21;;;;;;;30.30;16.20;;;;;;;2.45;100.00;101265.44;5104528;28;20211;-86
2023/12/07 08:45:53;;;;;;;21.73;14.70;;;;;;;2.46;100.00;101268.94;5103194;28;20235;-86
2023/12/07 08:48:20;;;;;;;23.63;14.97;;;;;;;2.44;100.00;101263.69;5106748;28;20560;-86
2023/12/07 08:50:47;;;;;;;20.67;14.60;;;;;;;2.46;100.00;101263.66;5102359;28;20211;-87
2023/12/07 08:53:13;;;;;;;23.13;14.80;;;;;;;2.46;100.00;101261.91;5104882;28;20204;-86
2023/12/07 08:55:43;;;;;;;20.57;13.97;;;;;;;2.46;100.00;101267.16;5105597;28;20234;-87
2023/12/07 08:58:14;;;;;;;24.57;14.47;;;;;;;2.51;100.00;101274.97;5101657;28;20204;-87
2023/12/07 09:00:42;;;;;;;19.70;13.33;;;;;;;2.52;100.00;101269.66;5101473;28;20279;-86
2023/12/07 09:03:14;;;;;;;18.20;13.40;;;;;;;2.50;100.00;101281.13;5100928;28;20656;-85
2023/12/07 09:05:40;;;;;;;18.43;13.07;;;;;;;2.49;100.00;101280.25;5097904;28;20899;-87
2023/12/07 09:08:09;;;;;;;19.77;12.70;;;;;;;2.49;100.00;101280.25;5100992;28;20204;-86
2023/12/07 09:10:36;;;;;;;22.83;13.27;;;;;;;2.51;100.00;101282.84;5096331;28;20212;-85
2023/12/07 09:13:03;;;;;;;19.90;13.87;;;;;;;2.50;100.00;101284.63;5100553;28;20196;-87
2023/12/07 09:15:32;;;;;;;18.33;12.67;;;;;;;2.49;100.00;101284.66;5101685;28;20236;-88
2023/12/07 09:18:02;;;;;;;21.27;13.70;;;;;;;2.52;100.00;101293.31;5106565;28;20581;-87
2023/12/07 09:20:29;;;;;;;19.17;13.60;;;;;;;2.52;100.00;101287.19;5108618;28;20215;-87
2023/12/07 09:22:57;;;;;;;21.97;13.67;;;;;;;2.53;100.00;101283.66;5104851;28;20212;-86
2023/12/07 09:25:28;;;;;;;22.40;13.40;;;;;;;2.51;100.00;101288.13;5098048;28;20303;-86
2023/12/07 09:27:54;;;;;;;20.67;14.00;;;;;;;2.50;100.00;101289.00;5100907;28;20203;-86
2023/12/07 09:30:24;;;;;;;21.43;12.47;;;;;;;2.52;100.00;101292.44;5099948;28;20290;-87
2023/12/07 09:32:50;;;;;;;20.20;12.57;;;;;;;2.55;100.00;101292.38;5102557;28;20196;-85
2023/12/07 09:35:21;;;;;;;21.20;13.23;;;;;;;2.53;100.00;101292.41;5104246;28;20212;-86
2023/12/07 09:37:49;;;;;;;18.27;12.40;;;;;;;2.54;100.00;101293.28;5109567;28;20207;-87
2023/12/07 09:40:19;;;;;;;17.07;11.70;;;;;;;2.54;100.00;101288.88;5102805;28;20200;-85
2023/12/07 09:42:46;;;;;;;17.20;11.60;;;;;;;2.57;100.00;101290.59;5097423;28;20206;-87
2023/12/07 09:45:13;;;;;;;17.97;12.83;;;;;;;2.58;100.00;101293.19;5108101;28;20310;-86
2023/12/07 09:47:40;;;;;;;17.87;13.40;;;;;;;2.62;100.00;101294.00;5099182;28;20314;-87
2023/12/07 09:50:13;;;;;;;20.07;13.00;;;;;;;2.60;100.00;101291.41;5098540;28;20687;-87
2023/12/07 09:52:42;;;;;;;18.27;12.90;;;;;;;2.59;100.00;101289.69;5101943;28;20207;-86
2023/12/07 09:55:11;;;;;;;19.40;14.60;;;;;;;2.58;100.00;101293.19;5101229;28;20230;-86
2023/12/07 09:57:43;;;;;;;20.07;13.60;;;;;;;2.61;100.00;101292.28;5101448;28;20199;-86
2023/12/07 10:00:17;;;;;;;19.73;13.37;;;;;;;2.63;100.00;101295.75;5101806;28;20291;-85
2023/12/07 10:02:46;;;;;;;24.63;13.77;;;;;;;2.63;100.00;101293.13;5100098;28;20211;-86
2023/12/07 10:05:16;;;;;;;25.53;14.33;;;;;;;2.64;100.00;101281.69;5096532;28;20221;-87
2023/12/07 10:07:46;;;;;;;16.83;12.77;;;;;;;2.64;100.00;101289.59;5098756;28;20227;-86
2023/12/07 10:10:14;;;;;;;21.00;14.43;;;;;;;2.64;100.00;101281.69;5098652;28;20212;-87
2023/12/07 10:12:47;;;;;;;23.50;13.90;;;;;;;2.65;100.00;101289.56;5099780;28;20204;-87
2023/12/07 10:15:14;;;;;;;22.53;14.13;;;;;;;2.65;100.00;101286.06;5098956;28;20719;-86
2023/12/07 10:17:48;;;;;;;23.53;15.23;;;;;;;2.67;100.00;101286.91;5098809;28;20295;-87
2023/12/07 10:20:16;;;;;;;34.07;22.10;;;;;;;2.68;100.00;101284.25;5093086;28;20266;-86
2023/12/07 10:22:47;;;;;;;22.30;14.93;;;;;;;2.71;100.00;101294.66;5098358;28;20207;-86
2023/12/07 10:25:15;;;;;;;29.20;19.27;;;;;;;2.73;99.81;101287.63;5102564;28;20264;-87
2023/12/07 10:27:43;;;;;;;23.27;15.73;;;;;;;2.74;99.49;101280.59;5101073;28;20246;-86
2023/12/07 10:30:11;;;;;;;19.47;13.57;;;;;;;2.74;99.89;101281.47;5104178;28;20203;-87
2023/12/07 10:32:40;;;;;;;24.70;15.03;;;;;;;2.72;100.00;101280.63;5098920;28;20291;-87
2023/12/07 10:35:10;;;;;;;17.63;12.57;;;;;;;2.79;99.34;101273.47;5102940;28;20224;-86
2023/12/07 10:37:38;;;;;;;19.03;13.83;;;;;;;2.78;98.95;101279.63;5102483;28;20632;-87
2023/12/07 10:40:11;;;;;;;20.53;14.23;;;;;;;2.77;99.08;101278.78;5100481;28;20198;-86
2023/12/07 10:42:39;;;;;;;21.03;14.37;;;;;;;2.80;99.31;101277.84;5099185;28;20200;-87
2023/12/07 10:45:07;;;;;;;21.93;12.93;;;;;;;2.82;99.15;101275.19;5097041;28;20239;-85
2023/12/07 10:47:36;;;;;;;20.50;12.57;;;;;;;2.82;98.86;101273.41;5099537;28;20230;-88
2023/12/07 10:50:06;;;;;;;25.10;14.43;;;;;;;2.82;98.71;101276.06;5100015;28;20216;-87
2023/12/07 10:52:40;;;;;;;19.70;13.40;;;;;;;2.83;99.16;101272.53;5101400;28;20282;-86
2023/12/07 10:55:23;;;;;;;22.83;13.77;;;;;;;2.84;99.16;101262.88;5097187;28;20230;-85
2023/12/07 10:57:56;;;;;;;22.07;13.97;;;;;;;2.84;99.13;101260.25;5101208;28;20231;-86
2023/12/07 11:03:20;;;;;;;20.67;13.50;;;;;;;2.87;98.69;101260.16;5099751;28;20774;-86
2023/12/07 11:05:47;;;;;;;22.80;13.77;;;;;;;2.92;97.83;101250.41;5102926;28;20254;-86
2023/12/07 11:08:22;;;;;;;23.17;13.07;;;;;;;2.89;97.97;101247.81;5106065;28;20648;-85
2023/12/07 11:11:00;;;;;;;17.40;12.03;;;;;;;2.89;98.00;101250.47;5099787;28;20199;-85
2023/12/07 11:13:32;;;;;;;23.43;13.47;;;;;;;2.93;97.87;101260.03;5101434;28;20266;-85
2023/12/07 11:16:00;;;;;;;22.07;13.23;;;;;;;2.94;97.70;101256.50;5106181;28;20214;-86
2023/12/07 11:18:26;;;;;;;18.77;12.43;;;;;;;2.96;97.35;101257.31;5096874;28;20200;-86
2023/12/07 11:20:54;;;;;;;20.17;13.07;;;;;;;2.95;98.07;101252.97;5100135;28;20211;-86
2023/12/07 11:23:21;;;;;;;24.10;13.80;;;;;;;2.94;98.21;101244.19;5103230;28;20226;-86